createdAt,value
2023-02-04T00:00:18.445Z,7.70
2023-02-04T00:02:45.860Z,7.70
2023-02-04T00:05:13.760Z,7.70
2023-02-04T00:07:41.578Z,7.80
2023-02-04T00:10:10.453Z,7.70
2023-02-04T00:12:37.883Z,7.70
2023-02-04T00:15:06.105Z,7.70
2023-02-04T00:17:33.539Z,7.60
2023-02-04T00:20:00.856Z,7.70
2023-02-04T00:22:29.154Z,7.60
2023-02-04T00:24:56.820Z,7.50
2023-02-04T00:27:24.197Z,7.50
2023-02-04T00:29:51.527Z,7.50
2023-02-04T00:32:19.013Z,7.30
2023-02-04T00:34:47.210Z,7.30
2023-02-04T00:37:14.622Z,7.30
2023-02-04T00:39:42.944Z,7.30
2023-02-04T00:42:10.474Z,7.30
2023-02-04T00:44:37.848Z,7.30
2023-02-04T00:47:05.512Z,7.30
2023-02-04T00:49:36.288Z,7.20
2023-02-04T00:52:10.228Z,7.20
2023-02-04T00:54:37.681Z,7.30
2023-02-04T00:57:05.034Z,7.30
2023-02-04T00:59:32.543Z,7.40
2023-02-04T01:02:00.352Z,7.40
2023-02-04T01:04:28.326Z,7.50
2023-02-04T01:06:55.793Z,7.50
2023-02-04T01:09:23.087Z,7.40
2023-02-04T01:11:50.519Z,7.40
2023-02-04T01:14:17.879Z,7.40
2023-02-04T01:16:45.450Z,7.40
2023-02-04T01:19:13.531Z,7.40
2023-02-04T01:21:41.087Z,7.50
2023-02-04T01:24:08.801Z,7.40
2023-02-04T01:26:56.074Z,7.40
2023-02-04T01:29:23.418Z,7.40
2023-02-04T01:31:51.544Z,7.40
2023-02-04T01:34:18.916Z,7.40
2023-02-04T01:36:46.378Z,7.40
2023-02-04T01:39:13.882Z,7.40
2023-02-04T01:41:41.348Z,7.40
2023-02-04T01:44:08.696Z,7.40
2023-02-04T01:46:37.488Z,7.40
2023-02-04T01:49:09.303Z,7.40
2023-02-04T01:51:37.597Z,7.40
2023-02-04T01:54:04.990Z,7.30
2023-02-04T01:56:32.649Z,7.40
2023-02-04T01:59:00.313Z,7.40
2023-02-04T02:01:39.423Z,7.30
2023-02-04T02:04:06.830Z,7.30
2023-02-04T02:06:35.715Z,7.30
2023-02-04T02:09:03.332Z,7.30
2023-02-04T02:11:31.559Z,7.20
2023-02-04T02:14:00.922Z,7.20
2023-02-04T02:16:30.115Z,7.20
2023-02-04T02:18:58.599Z,7.20
2023-02-04T02:21:40.538Z,7.20
2023-02-04T02:24:31.568Z,7.20
2023-02-04T02:27:04.870Z,7.20
2023-02-04T02:29:32.336Z,7.10
2023-02-04T02:32:00.169Z,7.10
2023-02-04T02:34:28.626Z,7.00
2023-02-04T02:36:57.729Z,6.80
2023-02-04T02:39:26.158Z,6.70
2023-02-04T02:41:55.063Z,6.70
2023-02-04T02:44:23.810Z,6.70
2023-02-04T02:46:51.949Z,6.60
2023-02-04T02:49:20.276Z,6.70
2023-02-04T02:51:48.749Z,6.80
2023-02-04T02:54:24.189Z,6.80
2023-02-04T02:56:54.229Z,6.80
2023-02-04T02:59:24.293Z,6.90
2023-02-04T03:01:55.644Z,6.90
2023-02-04T03:04:25.005Z,6.90
2023-02-04T03:06:54.202Z,6.90
2023-02-04T03:09:21.941Z,6.80
2023-02-04T03:11:49.490Z,6.80
2023-02-04T03:14:17.597Z,6.80
2023-02-04T03:16:45.938Z,6.70
2023-02-04T03:19:13.596Z,6.60
2023-02-04T03:21:41.854Z,6.50
2023-02-04T03:24:09.399Z,6.50
2023-02-04T03:26:38.117Z,6.40
2023-02-04T03:29:10.263Z,6.40
2023-02-04T03:31:38.319Z,6.30
2023-02-04T03:34:06.315Z,6.30
2023-02-04T03:36:34.328Z,6.20
2023-02-04T03:39:01.995Z,6.20
2023-02-04T03:41:30.254Z,6.20
2023-02-04T03:43:57.592Z,6.20
2023-02-04T03:46:25.950Z,6.20
2023-02-04T03:48:53.366Z,6.20
2023-02-04T03:51:20.636Z,6.10
2023-02-04T03:53:48.082Z,6.10
2023-02-04T03:56:15.514Z,6.20
2023-02-04T03:58:42.889Z,6.20
2023-02-04T04:01:10.232Z,6.20
2023-02-04T04:03:37.703Z,6.10
2023-02-04T04:06:07.628Z,6.10
2023-02-04T04:08:34.939Z,6.10
2023-02-04T04:11:02.200Z,6.00
2023-02-04T04:13:29.530Z,5.90
2023-02-04T04:15:57.018Z,5.90
2023-02-04T04:18:24.339Z,5.80
2023-02-04T04:20:51.644Z,5.80
2023-02-04T04:23:19.018Z,5.80
2023-02-04T04:25:46.346Z,5.70
2023-02-04T04:28:13.790Z,5.60
2023-02-04T04:30:41.156Z,5.50
2023-02-04T04:33:11.056Z,5.50
2023-02-04T04:35:38.451Z,5.50
2023-02-04T04:38:05.695Z,5.40
2023-02-04T04:40:33.329Z,5.40
2023-02-04T04:43:00.908Z,5.40
2023-02-04T04:45:28.330Z,5.40
2023-02-04T04:47:55.674Z,5.40
2023-02-04T04:50:23.001Z,5.40
2023-02-04T04:52:50.310Z,5.40
2023-02-04T04:55:17.724Z,5.40
2023-02-04T04:57:45.033Z,5.40
2023-02-04T05:00:16.839Z,5.40
2023-02-04T05:02:44.220Z,5.30
2023-02-04T05:05:13.365Z,5.30
2023-02-04T05:07:40.709Z,5.20
2023-02-04T05:10:09.363Z,5.10
2023-02-04T05:12:36.664Z,5.00
2023-02-04T05:15:04.481Z,4.90
2023-02-04T05:17:31.895Z,4.90
2023-02-04T05:19:59.261Z,5.00
2023-02-04T05:22:26.610Z,5.10
2023-02-04T05:24:53.941Z,5.20
2023-02-04T05:27:21.368Z,5.30
2023-02-04T05:29:48.850Z,5.30
2023-02-04T05:32:16.250Z,5.30
2023-02-04T05:34:43.606Z,5.30
2023-02-04T05:37:11.006Z,5.40
2023-02-04T05:39:38.345Z,5.40
2023-02-04T05:42:05.725Z,5.40
2023-02-04T05:44:33.116Z,5.40
2023-02-04T05:47:00.491Z,5.50
2023-02-04T05:49:27.829Z,5.50
2023-02-04T05:51:55.292Z,5.60
2023-02-04T05:54:22.620Z,5.60
2023-02-04T05:56:51.682Z,5.70
2023-02-04T05:59:19.138Z,5.70
2023-02-04T06:01:46.433Z,5.70
2023-02-04T06:04:15.414Z,5.80
2023-02-04T06:06:43.866Z,5.80
2023-02-04T06:09:11.351Z,5.80
2023-02-04T06:11:38.934Z,5.90
2023-02-04T06:14:07.448Z,5.90
2023-02-04T06:16:38.009Z,5.90
2023-02-04T06:19:05.722Z,5.90
2023-02-04T06:21:33.260Z,5.90
2023-02-04T06:24:01.002Z,5.90
2023-02-04T06:26:28.900Z,5.90
2023-02-04T06:28:56.526Z,5.90
2023-02-04T06:31:24.344Z,5.80
2023-02-04T06:33:52.027Z,5.70
2023-02-04T06:36:19.712Z,5.60
2023-02-04T06:38:47.506Z,5.50
2023-02-04T06:41:14.942Z,5.50
2023-02-04T06:43:43.498Z,5.60
2023-02-04T06:46:12.542Z,5.50
2023-02-04T06:48:40.891Z,5.50
2023-02-04T06:51:09.723Z,5.60
2023-02-04T06:53:38.461Z,5.60
2023-02-04T06:56:07.050Z,5.70
2023-02-04T06:58:34.782Z,5.80
2023-02-04T07:01:02.620Z,5.90
2023-02-04T07:03:30.614Z,5.90
2023-02-04T07:05:58.445Z,5.90
2023-02-04T07:08:27.124Z,6.00
2023-02-04T07:10:55.475Z,6.00
2023-02-04T07:13:23.104Z,6.10
2023-02-04T07:15:51.071Z,6.00
2023-02-04T07:18:19.837Z,6.10
2023-02-04T07:20:47.147Z,6.10
2023-02-04T07:23:14.508Z,6.10
2023-02-04T07:25:42.107Z,6.20
2023-02-04T07:28:09.584Z,6.20
2023-02-04T07:30:37.245Z,6.20
2023-02-04T07:33:05.013Z,6.20
2023-02-04T07:35:32.292Z,6.20
2023-02-04T07:37:59.629Z,6.30
2023-02-04T07:40:27.068Z,6.30
2023-02-04T07:42:54.662Z,6.40
2023-02-04T07:45:23.878Z,6.40
2023-02-04T07:47:51.365Z,6.40
2023-02-04T07:50:18.967Z,6.50
2023-02-04T07:52:46.740Z,6.50
2023-02-04T07:55:14.948Z,6.50
2023-02-04T07:57:42.415Z,6.50
2023-02-04T08:00:10.990Z,6.50
2023-02-04T08:02:41.987Z,6.60
2023-02-04T08:05:09.921Z,6.60
2023-02-04T08:07:37.440Z,6.70
2023-02-04T08:10:07.071Z,6.70
2023-02-04T08:12:34.618Z,6.80
2023-02-04T08:15:01.943Z,7.00
2023-02-04T08:17:29.603Z,7.00
2023-02-04T08:19:57.243Z,7.10
2023-02-04T08:22:24.690Z,7.10
2023-02-04T08:24:52.007Z,7.30
2023-02-04T08:27:19.514Z,7.40
2023-02-04T08:29:46.774Z,7.60
2023-02-04T08:32:14.018Z,7.70
2023-02-04T08:34:41.293Z,7.70
2023-02-04T08:37:08.568Z,7.70
2023-02-04T08:39:35.894Z,7.70
2023-02-04T08:42:03.278Z,7.60
2023-02-04T08:44:30.559Z,7.60
2023-02-04T08:46:57.972Z,7.70
2023-02-04T08:49:25.294Z,7.70
2023-02-04T08:51:52.703Z,7.80
2023-02-04T08:54:20.170Z,7.90
2023-02-04T08:56:47.426Z,8.10
2023-02-04T08:59:14.861Z,8.20
2023-02-04T09:01:42.601Z,8.30
2023-02-04T09:04:09.988Z,8.40
2023-02-04T09:06:37.257Z,8.30
2023-02-04T09:09:04.505Z,8.40
2023-02-04T09:11:31.930Z,8.40
2023-02-04T09:13:59.484Z,8.30
2023-02-04T09:16:26.790Z,8.40
2023-02-04T09:18:54.108Z,8.60
2023-02-04T09:21:21.725Z,8.70
2023-02-04T09:23:49.087Z,8.90
2023-02-04T09:26:16.382Z,8.80
2023-02-04T09:28:44.078Z,8.90
2023-02-04T09:31:12.016Z,9.10
2023-02-04T09:33:39.380Z,9.20
2023-02-04T09:36:09.134Z,9.30
2023-02-04T09:38:37.165Z,9.40
2023-02-04T09:41:08.467Z,9.60
2023-02-04T09:43:39.593Z,9.70
2023-02-04T09:46:29.345Z,9.90
2023-02-04T09:48:58.989Z,10.10
2023-02-04T09:51:29.345Z,10.10
2023-02-04T09:54:11.858Z,10.20
2023-02-04T09:56:39.660Z,10.40
2023-02-04T09:59:21.469Z,10.60
2023-02-04T10:01:57.888Z,10.80
2023-02-04T10:04:25.635Z,10.90
2023-02-04T10:06:53.489Z,11.10
2023-02-04T10:09:20.909Z,10.90
2023-02-04T10:11:48.827Z,10.60
2023-02-04T10:14:20.685Z,10.40
2023-02-04T10:16:58.611Z,10.30
2023-02-04T10:19:28.629Z,10.30
2023-02-04T10:21:56.776Z,10.50
2023-02-04T10:24:26.661Z,10.60
2023-02-04T10:26:54.709Z,10.70
2023-02-04T10:29:25.736Z,10.80
2023-02-04T10:31:53.435Z,11.10
2023-02-04T10:34:33.271Z,11.30
2023-02-04T10:37:01.232Z,11.60
2023-02-04T10:39:30.368Z,11.40
2023-02-04T10:42:00.890Z,11.50
2023-02-04T10:44:35.889Z,11.30
2023-02-04T10:47:06.539Z,11.20
2023-02-04T10:49:33.891Z,11.20
2023-02-04T10:52:02.419Z,11.20
2023-02-04T10:54:35.447Z,11.10
2023-02-04T10:57:23.294Z,11.30
2023-02-04T10:59:54.800Z,11.50
2023-02-04T11:02:43.008Z,11.50
2023-02-04T11:05:22.486Z,11.60
2023-02-04T11:07:51.645Z,11.60
2023-02-04T11:10:23.090Z,11.60
2023-02-04T11:12:53.592Z,11.60
2023-02-04T11:15:44.765Z,11.70
2023-02-04T11:18:21.405Z,11.60
2023-02-04T11:20:50.597Z,11.60
2023-02-04T11:23:27.013Z,11.70
2023-02-04T11:26:03.672Z,11.70
2023-02-04T11:28:51.644Z,11.70
2023-02-04T11:31:22.180Z,12.10
2023-02-04T11:34:02.102Z,12.50
2023-02-04T11:36:30.506Z,12.50
2023-02-04T11:39:06.917Z,12.50
2023-02-04T11:41:34.568Z,12.60
2023-02-04T11:44:01.964Z,12.70
2023-02-04T11:46:29.843Z,12.80
2023-02-04T11:48:58.771Z,12.60
2023-02-04T11:51:33.191Z,12.20
2023-02-04T11:54:00.607Z,11.90
2023-02-04T11:56:29.659Z,11.70
2023-02-04T11:58:58.500Z,11.60
2023-02-04T12:01:32.362Z,11.50
2023-02-04T12:04:01.986Z,11.50
2023-02-04T12:06:35.875Z,11.60
2023-02-04T12:09:25.015Z,11.80
2023-02-04T12:11:58.284Z,11.90
2023-02-04T12:14:34.505Z,12.00
2023-02-04T12:17:01.833Z,11.70
2023-02-04T12:19:29.173Z,11.70
2023-02-04T12:21:56.550Z,11.70
2023-02-04T12:24:23.931Z,11.70
2023-02-04T12:26:51.725Z,11.80
2023-02-04T12:29:19.147Z,11.90
2023-02-04T12:31:46.778Z,11.90
2023-02-04T12:34:14.134Z,11.80
2023-02-04T12:36:41.399Z,11.80
2023-02-04T12:39:10.242Z,11.90
2023-02-04T12:41:37.499Z,11.90
2023-02-04T12:44:04.933Z,11.90
2023-02-04T12:46:32.304Z,12.00
2023-02-04T12:48:59.670Z,11.90
2023-02-04T12:51:27.361Z,11.80
2023-02-04T12:53:54.630Z,11.90
2023-02-04T12:56:24.126Z,12.10
2023-02-04T12:58:51.396Z,12.00
2023-02-04T13:01:18.816Z,12.00
2023-02-04T13:03:46.312Z,11.90
2023-02-04T13:06:13.554Z,11.90
2023-02-04T13:08:40.819Z,11.90
2023-02-04T13:11:08.071Z,11.70
2023-02-04T13:13:35.479Z,11.80
2023-02-04T13:16:02.899Z,11.70
2023-02-04T13:18:30.283Z,11.70
2023-02-04T13:20:57.539Z,11.70
2023-02-04T13:23:24.940Z,11.60
2023-02-04T13:25:52.285Z,11.50
2023-02-04T13:28:19.560Z,11.40
2023-02-04T13:30:46.856Z,11.30
2023-02-04T13:33:14.144Z,11.20
2023-02-04T13:35:41.494Z,11.20
2023-02-04T13:38:08.852Z,11.30
2023-02-04T13:40:36.205Z,11.40
2023-02-04T13:43:03.478Z,11.50
2023-02-04T13:45:31.086Z,11.50
2023-02-04T13:47:58.765Z,11.50
2023-02-04T13:50:26.078Z,11.50
2023-02-04T13:52:53.435Z,11.40
2023-02-04T13:55:23.235Z,11.50
2023-02-04T13:57:50.526Z,11.50
2023-02-04T14:00:18.142Z,11.40
2023-02-04T14:02:45.481Z,11.40
2023-02-04T14:05:12.780Z,11.40
2023-02-04T14:07:40.318Z,11.40
2023-02-04T14:10:08.133Z,11.40
2023-02-04T14:12:35.439Z,11.30
2023-02-04T14:15:02.804Z,11.20
2023-02-04T14:17:30.082Z,11.10
2023-02-04T14:19:57.510Z,11.10
2023-02-04T14:22:24.818Z,11.00
2023-02-04T14:24:52.048Z,10.80
2023-02-04T14:27:19.387Z,10.70
2023-02-04T14:29:46.712Z,10.60
2023-02-04T14:32:14.009Z,10.60
2023-02-04T14:34:41.255Z,10.60
2023-02-04T14:37:08.567Z,10.60
2023-02-04T14:39:35.848Z,10.60
2023-02-04T14:42:05.142Z,10.50
2023-02-04T14:44:32.682Z,10.60
2023-02-04T14:47:00.097Z,10.60
2023-02-04T14:49:27.329Z,10.60
2023-02-04T14:51:54.949Z,10.60
2023-02-04T14:54:22.210Z,10.50
2023-02-04T14:56:50.398Z,10.50
2023-02-04T14:59:17.735Z,10.40
2023-02-04T15:01:46.196Z,10.30
2023-02-04T15:04:13.996Z,10.20
2023-02-04T15:06:41.380Z,10.10
2023-02-04T15:09:08.780Z,10.00
2023-02-04T15:11:36.169Z,10.00
2023-02-04T15:14:03.876Z,10.00
2023-02-04T15:16:31.184Z,10.00
2023-02-04T15:18:58.726Z,10.10
2023-02-04T15:21:27.294Z,10.10
2023-02-04T15:23:54.648Z,10.10
2023-02-04T15:26:22.424Z,10.00
2023-02-04T15:28:49.814Z,10.00
2023-02-04T15:31:17.329Z,10.00
2023-02-04T15:33:44.709Z,9.90
2023-02-04T15:36:12.111Z,9.80
2023-02-04T15:38:39.405Z,9.80
2023-02-04T15:41:06.759Z,9.80
2023-02-04T15:43:34.127Z,9.70
2023-02-04T15:46:01.562Z,9.70
2023-02-04T15:48:28.853Z,9.60
2023-02-04T15:50:56.436Z,9.60
2023-02-04T15:53:23.807Z,9.60
2023-02-04T15:55:51.136Z,9.60
2023-02-04T15:58:18.654Z,9.60
2023-02-04T16:00:45.999Z,9.60
2023-02-04T16:03:13.306Z,9.60
2023-02-04T16:05:40.518Z,9.50
2023-02-04T16:08:07.901Z,9.50
2023-02-04T16:10:35.482Z,9.50
2023-02-04T16:13:02.991Z,9.60
2023-02-04T16:15:30.663Z,9.40
2023-02-04T16:17:58.035Z,9.40
2023-02-04T16:20:25.302Z,9.30
2023-02-04T16:22:52.648Z,9.30
2023-02-04T16:25:20.056Z,9.20
2023-02-04T16:27:47.358Z,9.20
2023-02-04T16:30:15.186Z,9.00
2023-02-04T16:32:42.818Z,8.90
2023-02-04T16:35:10.222Z,8.80
2023-02-04T16:37:37.742Z,8.70
2023-02-04T16:40:06.256Z,8.60
2023-02-04T16:42:33.738Z,8.50
2023-02-04T16:45:00.990Z,8.50
2023-02-04T16:47:28.381Z,8.40
2023-02-04T16:49:59.860Z,8.40
2023-02-04T16:52:31.830Z,8.40
2023-02-04T16:54:59.212Z,8.30
2023-02-04T16:57:26.550Z,8.40
2023-02-04T16:59:53.792Z,8.40
2023-02-04T17:02:21.161Z,8.40
2023-02-04T17:04:48.465Z,8.40
2023-02-04T17:07:15.739Z,8.40
2023-02-04T17:09:43.748Z,8.40
2023-02-04T17:12:11.101Z,8.30
2023-02-04T17:14:41.006Z,8.20
2023-02-04T17:17:08.416Z,8.20
2023-02-04T17:19:35.699Z,8.10
2023-02-04T17:22:02.962Z,8.00
2023-02-04T17:24:30.246Z,8.00
2023-02-04T17:26:57.665Z,8.00
2023-02-04T17:29:25.025Z,8.00
2023-02-04T17:31:52.941Z,8.00
2023-02-04T17:34:20.194Z,8.00
2023-02-04T17:36:47.509Z,8.10
2023-02-04T17:39:14.850Z,8.10
2023-02-04T17:41:42.069Z,8.10
2023-02-04T17:44:09.868Z,8.00
2023-02-04T17:46:37.408Z,8.00
2023-02-04T17:49:04.892Z,8.00
2023-02-04T17:51:32.243Z,7.90
2023-02-04T17:53:59.620Z,7.80
2023-02-04T17:56:27.078Z,7.70
2023-02-04T17:58:56.094Z,7.80
2023-02-04T18:01:25.247Z,7.70
2023-02-04T18:03:52.869Z,7.60
2023-02-04T18:06:23.641Z,7.40
2023-02-04T18:08:52.569Z,7.20
2023-02-04T18:11:24.058Z,6.90
2023-02-04T18:13:54.299Z,6.80
2023-02-04T18:16:33.795Z,6.70
2023-02-04T18:19:20.970Z,6.70
2023-02-04T18:21:49.464Z,6.60
2023-02-04T18:24:19.841Z,6.50
2023-02-04T18:26:52.851Z,6.30
2023-02-04T18:29:36.600Z,6.10
2023-02-04T18:32:24.984Z,5.90
2023-02-04T18:34:54.986Z,5.90
2023-02-04T18:37:49.485Z,5.70
2023-02-04T18:40:19.808Z,5.60
2023-02-04T18:42:47.982Z,5.60
2023-02-04T18:45:19.868Z,5.70
2023-02-04T18:47:47.184Z,5.70
2023-02-04T18:50:28.111Z,5.50
2023-02-04T18:53:01.568Z,5.30
2023-02-04T18:55:40.472Z,5.20
2023-02-04T18:58:17.159Z,5.20
2023-02-04T19:00:49.926Z,5.10
2023-02-04T19:03:25.435Z,5.00
2023-02-04T19:05:54.112Z,5.00
2023-02-04T19:08:26.357Z,4.90
2023-02-04T19:10:56.374Z,4.80
2023-02-04T19:13:40.972Z,4.80
2023-02-04T19:16:17.566Z,4.70
2023-02-04T19:18:47.000Z,4.70
2023-02-04T19:21:22.097Z,4.60
2023-02-04T19:23:50.760Z,4.60
2023-02-04T19:26:41.869Z,4.50
2023-02-04T19:29:30.336Z,4.50
2023-02-04T19:32:18.799Z,4.80
2023-02-04T19:34:46.100Z,4.90
2023-02-04T19:37:33.102Z,4.90
2023-02-04T19:40:01.891Z,4.70
2023-02-04T19:42:33.151Z,4.60
2023-02-04T19:45:16.197Z,4.50
2023-02-04T19:47:45.534Z,4.50
2023-02-04T19:50:12.794Z,4.50
2023-02-04T19:52:52.369Z,4.60
2023-02-04T19:55:38.020Z,4.80
2023-02-04T19:58:17.497Z,4.90
2023-02-04T20:00:56.127Z,5.10
2023-02-04T20:03:28.744Z,5.10
2023-02-04T20:06:00.978Z,5.20
2023-02-04T20:08:54.464Z,5.30
2023-02-04T20:11:27.627Z,5.40
2023-02-04T20:14:23.984Z,5.40
2023-02-04T20:17:00.271Z,5.60
2023-02-04T20:19:30.634Z,5.80
2023-02-04T20:22:20.959Z,5.90
2023-02-04T20:24:50.831Z,6.00
2023-02-04T20:27:23.139Z,6.10
2023-02-04T20:29:58.544Z,6.10
2023-02-04T20:32:27.866Z,6.20
2023-02-04T20:35:01.709Z,6.20
2023-02-04T20:37:29.060Z,6.20
2023-02-04T20:39:56.660Z,6.20
2023-02-04T20:42:28.976Z,6.20
2023-02-04T20:45:09.590Z,6.20
2023-02-04T20:47:36.911Z,6.20
2023-02-04T20:50:36.223Z,6.30
2023-02-04T20:53:38.639Z,6.20
2023-02-04T20:56:29.358Z,6.30
2023-02-04T20:59:09.212Z,6.40
2023-02-04T21:01:40.382Z,6.40
2023-02-04T21:04:33.828Z,6.40
2023-02-04T21:07:08.028Z,6.40
2023-02-04T21:09:37.427Z,6.50
2023-02-04T21:12:04.856Z,6.60
2023-02-04T21:14:32.088Z,6.60
2023-02-04T21:16:59.679Z,6.60
2023-02-04T21:19:27.960Z,6.70
2023-02-04T21:21:58.795Z,6.70
2023-02-04T21:24:27.377Z,6.70
2023-02-04T21:26:54.640Z,6.80
2023-02-04T21:29:21.983Z,6.70
2023-02-04T21:31:49.621Z,6.80
2023-02-04T21:34:16.902Z,6.70
2023-02-04T21:36:44.162Z,6.80
2023-02-04T21:39:11.380Z,6.80
2023-02-04T21:41:38.653Z,6.80
2023-02-04T21:44:06.031Z,6.80
2023-02-04T21:46:33.471Z,6.80
2023-02-04T21:49:00.724Z,6.80
2023-02-04T21:51:28.298Z,6.80
2023-02-04T21:53:55.632Z,6.80
2023-02-04T21:56:22.982Z,6.80
2023-02-04T21:58:50.210Z,6.80
2023-02-04T22:01:17.629Z,6.80
2023-02-04T22:03:45.030Z,6.80
2023-02-04T22:06:12.399Z,6.80
2023-02-04T22:08:39.780Z,6.80
2023-02-04T22:11:07.135Z,6.70
2023-02-04T22:13:52.862Z,6.70
2023-02-04T22:16:20.195Z,6.70
2023-02-04T22:18:47.528Z,6.70
2023-02-04T22:21:14.756Z,6.60
2023-02-04T22:23:42.009Z,6.60
2023-02-04T22:26:09.267Z,6.70
2023-02-04T22:28:36.602Z,6.70
2023-02-04T22:31:03.931Z,6.70
2023-02-04T22:33:31.383Z,6.70
2023-02-04T22:35:58.622Z,6.70
2023-02-04T22:38:25.896Z,6.70
2023-02-04T22:40:53.217Z,6.70
2023-02-04T22:43:20.437Z,6.70
2023-02-04T22:45:47.743Z,6.70
2023-02-04T22:48:14.946Z,6.70
2023-02-04T22:50:42.235Z,6.70
2023-02-04T22:53:09.547Z,6.70
2023-02-04T22:55:36.754Z,6.70
2023-02-04T22:58:04.045Z,6.70
2023-02-04T23:00:32.107Z,6.70
2023-02-04T23:02:59.426Z,6.70
2023-02-04T23:05:26.738Z,6.70
2023-02-04T23:07:54.196Z,6.80
2023-02-04T23:10:21.669Z,6.80
2023-02-04T23:12:49.019Z,6.80
2023-02-04T23:15:16.347Z,6.80
2023-02-04T23:17:43.688Z,6.80
2023-02-04T23:20:11.251Z,6.90
2023-02-04T23:22:38.581Z,6.80
2023-02-04T23:25:06.819Z,6.80
2023-02-04T23:27:34.210Z,6.80
2023-02-04T23:30:01.522Z,6.80
2023-02-04T23:32:29.716Z,6.80
2023-02-04T23:34:57.103Z,6.80
2023-02-04T23:37:24.433Z,6.80
2023-02-04T23:39:51.707Z,6.80
2023-02-04T23:42:19.019Z,6.70
2023-02-04T23:44:46.261Z,6.70
2023-02-04T23:47:13.600Z,6.70
2023-02-04T23:49:40.813Z,6.60
2023-02-04T23:52:08.233Z,6.60
2023-02-04T23:54:36.202Z,6.60
2023-02-04T23:57:03.959Z,6.60
2023-02-04T23:59:31.859Z,6.60
